createdAt,value
2017-07-11T00:00:29.064Z,100664.03
2017-07-11T00:02:57.418Z,100664.63
2017-07-11T00:05:26.266Z,100668.78
2017-07-11T00:07:54.617Z,100668.60
2017-07-11T00:10:22.981Z,100668.42
2017-07-11T00:12:51.787Z,100675.66
2017-07-11T00:15:20.139Z,100668.42
2017-07-11T00:17:48.490Z,100668.30
2017-07-11T00:20:17.171Z,100658.59
2017-07-11T00:22:45.509Z,100660.50
2017-07-11T00:25:13.854Z,100658.58
2017-07-11T00:27:42.518Z,100665.56
2017-07-11T00:30:10.881Z,100665.73
2017-07-11T00:32:39.238Z,100664.84
2017-07-11T00:35:08.098Z,100669.62
2017-07-11T00:37:36.432Z,100669.50
2017-07-11T00:40:04.780Z,100670.56
2017-07-11T00:42:33.486Z,100673.31
2017-07-11T00:45:01.836Z,100677.70
2017-07-11T00:47:30.193Z,100671.53
2017-07-11T00:49:59.149Z,100670.38
2017-07-11T00:52:27.528Z,100670.17
2017-07-11T00:54:55.881Z,100675.67
2017-07-11T00:57:25.008Z,100675.41
2017-07-11T00:59:53.348Z,100674.12
2017-07-11T01:02:21.709Z,100680.91
2017-07-11T01:04:50.589Z,100684.28
2017-07-11T01:07:18.952Z,100691.02
2017-07-11T01:09:47.306Z,100694.77
2017-07-11T01:12:16.091Z,100701.87
2017-07-11T01:14:44.483Z,100688.70
2017-07-11T01:17:12.837Z,100697.95
2017-07-11T01:19:41.629Z,100694.98
2017-07-11T01:22:10.757Z,100698.08
2017-07-11T01:24:39.109Z,100693.75
2017-07-11T01:27:07.796Z,100697.75
2017-07-11T01:29:36.181Z,100701.50
2017-07-11T01:32:05.315Z,100695.38
2017-07-11T01:34:34.308Z,100689.92
2017-07-11T01:37:02.652Z,100690.46
2017-07-11T01:39:31.009Z,100693.09
2017-07-11T01:41:59.694Z,100685.63
2017-07-11T01:44:28.093Z,100693.20
2017-07-11T01:46:56.454Z,100695.20
2017-07-11T01:49:25.065Z,100691.28
2017-07-11T01:51:53.516Z,100686.08
2017-07-11T01:54:21.895Z,100684.94
2017-07-11T01:56:50.846Z,100687.60
2017-07-11T01:59:19.204Z,100686.95
2017-07-11T02:01:47.557Z,100685.38
2017-07-11T02:04:16.470Z,100690.09
2017-07-11T02:06:44.810Z,100684.36
2017-07-11T02:09:13.170Z,100694.89
2017-07-11T02:11:41.773Z,100689.05
2017-07-11T02:14:10.153Z,100692.45
2017-07-11T02:16:38.497Z,100695.84
2017-07-11T02:19:07.195Z,100688.56
2017-07-11T02:21:35.546Z,100692.95
2017-07-11T02:24:03.885Z,100694.92
2017-07-11T02:26:33.129Z,100689.22
2017-07-11T02:29:01.486Z,100678.53
2017-07-11T02:31:29.848Z,100679.20
2017-07-11T02:33:59.469Z,100676.53
2017-07-11T02:36:27.833Z,100685.73
2017-07-11T02:38:56.964Z,100691.64
2017-07-11T02:41:25.840Z,100685.63
2017-07-11T02:43:54.975Z,100679.00
2017-07-11T02:46:23.339Z,100668.77
2017-07-11T02:48:52.217Z,100677.64
2017-07-11T02:51:20.566Z,100677.73
2017-07-11T02:53:48.915Z,100683.75
2017-07-11T02:56:17.595Z,100682.09
2017-07-11T02:58:45.934Z,100667.39
2017-07-11T03:01:14.301Z,100671.50
2017-07-11T03:03:43.704Z,100669.20
2017-07-11T03:06:12.052Z,100674.48
2017-07-11T03:08:40.373Z,100670.72
2017-07-11T03:11:09.226Z,100672.66
2017-07-11T03:13:37.573Z,100675.80
2017-07-11T03:16:05.957Z,100680.97
2017-07-11T03:18:34.813Z,100688.73
2017-07-11T03:21:03.179Z,100689.02
2017-07-11T03:23:32.301Z,100686.17
2017-07-11T03:26:00.939Z,100686.75
2017-07-11T03:28:29.322Z,100680.39
2017-07-11T03:30:57.668Z,100683.53
2017-07-11T03:33:26.692Z,100679.09
2017-07-11T03:35:55.045Z,100686.69
2017-07-11T03:38:23.394Z,100679.72
2017-07-11T03:40:52.169Z,100674.56
2017-07-11T03:43:20.538Z,100678.41
2017-07-11T03:45:49.652Z,100675.10
2017-07-11T03:48:18.290Z,100673.16
2017-07-11T03:50:46.630Z,100676.66
2017-07-11T03:53:14.969Z,100684.05
2017-07-11T03:55:43.848Z,100682.73
2017-07-11T03:58:12.207Z,100687.75
2017-07-11T04:00:40.546Z,100688.23
2017-07-11T04:03:09.244Z,100690.73
2017-07-11T04:05:37.585Z,100681.61
2017-07-11T04:08:05.918Z,100683.33
2017-07-11T04:10:34.600Z,100692.31
2017-07-11T04:13:02.949Z,100690.38
2017-07-11T04:15:31.306Z,100687.24
2017-07-11T04:18:00.421Z,100685.81
2017-07-11T04:20:28.753Z,100691.13
2017-07-11T04:22:57.121Z,100685.85
2017-07-11T04:25:25.871Z,100683.89
2017-07-11T04:27:54.213Z,100680.81
2017-07-11T04:30:22.572Z,100679.16
2017-07-11T04:32:51.282Z,100688.72
2017-07-11T04:35:19.636Z,100682.94
2017-07-11T04:37:47.990Z,100694.58
2017-07-11T04:40:16.967Z,100694.83
2017-07-11T04:42:45.318Z,100702.30
2017-07-11T04:45:13.687Z,100697.39
2017-07-11T04:47:42.304Z,100704.52
2017-07-11T04:50:10.675Z,100699.58
2017-07-11T04:52:38.993Z,100698.66
2017-07-11T04:55:07.653Z,100706.98
2017-07-11T04:57:36.055Z,100703.45
2017-07-11T05:00:04.416Z,100700.39
2017-07-11T05:02:33.302Z,100708.37
2017-07-11T05:05:01.633Z,100706.35
2017-07-11T05:07:29.955Z,100707.33
2017-07-11T05:09:58.624Z,100705.73
2017-07-11T05:12:27.756Z,100701.14
2017-07-11T05:14:56.155Z,100704.70
2017-07-11T05:17:25.007Z,100704.98
2017-07-11T05:19:53.361Z,100694.56
2017-07-11T05:22:21.727Z,100698.20
2017-07-11T05:24:50.860Z,100691.50
2017-07-11T05:27:19.260Z,100694.73
2017-07-11T05:29:47.613Z,100700.56
2017-07-11T05:32:16.276Z,100690.74
2017-07-11T05:34:44.604Z,100701.67
2017-07-11T05:37:12.933Z,100696.61
2017-07-11T05:39:41.565Z,100694.61
2017-07-11T05:42:09.915Z,100693.63
2017-07-11T05:44:38.264Z,100694.84
2017-07-11T05:47:07.012Z,100697.78
2017-07-11T05:49:35.385Z,100698.25
2017-07-11T05:52:03.738Z,100703.41
2017-07-11T05:54:32.382Z,100708.16
2017-07-11T05:57:00.734Z,100705.13
2017-07-11T05:59:29.091Z,100715.76
2017-07-11T06:01:58.087Z,100709.97
2017-07-11T06:04:26.448Z,100718.56
2017-07-11T06:06:54.851Z,100710.18
2017-07-11T06:09:24.090Z,100711.86
2017-07-11T06:11:52.439Z,100721.39
2017-07-11T06:14:20.780Z,100719.72
2017-07-11T06:16:49.432Z,100725.74
2017-07-11T06:19:17.780Z,100723.98
2017-07-11T06:21:46.158Z,100719.52
2017-07-11T06:24:15.017Z,100723.81
2017-07-11T06:26:43.377Z,100720.59
2017-07-11T06:29:12.495Z,100720.90
2017-07-11T06:31:41.501Z,100727.97
2017-07-11T06:34:09.863Z,100727.55
2017-07-11T06:36:38.202Z,100727.73
2017-07-11T06:39:06.965Z,100722.16
2017-07-11T06:41:35.307Z,100722.77
2017-07-11T06:44:03.647Z,100730.21
2017-07-11T06:46:32.285Z,100735.68
2017-07-11T06:49:01.386Z,100732.53
2017-07-11T06:51:30.486Z,100740.77
2017-07-11T06:54:00.224Z,100738.63
2017-07-11T06:56:28.566Z,100742.34
2017-07-11T06:58:56.908Z,100748.42
2017-07-11T07:01:26.340Z,100739.06
2017-07-11T07:03:54.702Z,100744.16
2017-07-11T07:06:23.105Z,100750.73
2017-07-11T07:08:51.718Z,100744.47
2017-07-11T07:11:20.062Z,100748.42
2017-07-11T07:13:48.440Z,100750.70
2017-07-11T07:16:17.351Z,100752.41
2017-07-11T07:18:46.459Z,100749.26
2017-07-11T07:21:14.790Z,100749.84
2017-07-11T07:23:43.405Z,100748.05
2017-07-11T07:26:11.758Z,100746.73
2017-07-11T07:28:40.107Z,100738.59
2017-07-11T07:31:08.774Z,100740.09
2017-07-11T07:33:37.105Z,100737.86
2017-07-11T07:36:05.479Z,100744.41
2017-07-11T07:38:34.274Z,100748.31
2017-07-11T07:41:02.610Z,100754.88
2017-07-11T07:43:30.983Z,100748.27
2017-07-11T07:45:59.859Z,100757.36
2017-07-11T07:48:28.191Z,100746.91
2017-07-11T07:50:56.546Z,100752.47
2017-07-11T07:53:25.186Z,100748.02
2017-07-11T07:55:54.310Z,100744.83
2017-07-11T07:58:22.655Z,100749.37
2017-07-11T08:00:51.553Z,100757.19
2017-07-11T08:03:19.935Z,100755.91
2017-07-11T08:05:48.294Z,100753.92
2017-07-11T08:08:16.943Z,100749.14
2017-07-11T08:10:45.273Z,100744.95
2017-07-11T08:13:13.627Z,100756.77
2017-07-11T08:15:42.258Z,100750.60
2017-07-11T08:18:10.635Z,100750.23
2017-07-11T08:20:38.964Z,100742.42
2017-07-11T08:23:07.874Z,100744.58
2017-07-11T08:25:36.230Z,100741.79
2017-07-11T08:28:04.561Z,100740.98
2017-07-11T08:30:33.347Z,100748.73
2017-07-11T08:33:01.704Z,100749.45
2017-07-11T08:35:30.100Z,100749.66
2017-07-11T08:37:58.802Z,100754.17
2017-07-11T08:40:27.141Z,100751.89
2017-07-11T08:42:55.495Z,100752.54
2017-07-11T08:45:24.185Z,100753.05
2017-07-11T08:47:52.537Z,100741.73
2017-07-11T08:50:20.905Z,100749.80
2017-07-11T08:52:49.527Z,100746.75
2017-07-11T08:55:17.890Z,100743.98
2017-07-11T08:57:46.267Z,100737.12
2017-07-11T09:00:14.921Z,100737.66
2017-07-11T09:02:43.262Z,100739.45
2017-07-11T09:05:11.710Z,100742.91
2017-07-11T09:07:40.476Z,100740.03
2017-07-11T09:10:08.844Z,100748.76
2017-07-11T09:12:37.197Z,100743.02
2017-07-11T09:15:06.018Z,100743.65
2017-07-11T09:17:34.374Z,100745.22
2017-07-11T09:20:02.743Z,100745.02
2017-07-11T09:22:31.455Z,100746.88
2017-07-11T09:24:59.793Z,100748.14
2017-07-11T09:27:28.195Z,100750.48
2017-07-11T09:29:57.086Z,100746.13
2017-07-11T09:32:25.432Z,100747.72
2017-07-11T09:34:53.789Z,100748.47
2017-07-11T09:37:22.571Z,100746.56
2017-07-11T09:39:50.921Z,100743.83
2017-07-11T09:42:20.008Z,100741.75
2017-07-11T09:44:48.831Z,100746.48
2017-07-11T09:47:17.188Z,100747.39
2017-07-11T09:49:46.305Z,100738.63
2017-07-11T09:52:15.504Z,100728.48
2017-07-11T09:54:43.875Z,100734.66
2017-07-11T09:57:12.236Z,100731.08
2017-07-11T09:59:41.015Z,100731.29
2017-07-11T10:02:09.352Z,100733.78
2017-07-11T10:04:37.716Z,100740.12
2017-07-11T10:07:06.583Z,100738.41
2017-07-11T10:09:34.923Z,100735.81
2017-07-11T10:12:03.270Z,100730.84
2017-07-11T10:14:32.257Z,100730.19
2017-07-11T10:17:00.604Z,100723.84
2017-07-11T10:19:29.715Z,100719.14
2017-07-11T10:21:58.377Z,100718.05
2017-07-11T10:24:26.720Z,100732.23
2017-07-11T10:26:55.069Z,100719.47
2017-07-11T10:29:23.712Z,100723.30
2017-07-11T10:31:52.064Z,100718.14
2017-07-11T10:34:20.409Z,100718.13
2017-07-11T10:36:49.360Z,100718.53
2017-07-11T10:39:17.708Z,100713.05
2017-07-11T10:41:46.049Z,100714.30
2017-07-11T10:44:14.683Z,100719.99
2017-07-11T10:46:43.039Z,100719.77
2017-07-11T10:49:11.407Z,100718.25
2017-07-11T10:51:40.053Z,100709.67
2017-07-11T10:54:08.402Z,100716.95
2017-07-11T10:56:36.749Z,100719.15
2017-07-11T10:59:05.942Z,100721.67
2017-07-11T11:01:34.292Z,100723.08
2017-07-11T11:04:02.645Z,100718.59
2017-07-11T11:06:31.528Z,100708.31
2017-07-11T11:08:59.872Z,100704.55
2017-07-11T11:11:28.251Z,100720.12
2017-07-11T11:13:56.897Z,100701.97
2017-07-11T11:16:25.248Z,100698.30
2017-07-11T11:18:53.602Z,100697.11
2017-07-11T11:21:22.699Z,100697.05
2017-07-11T11:23:51.029Z,100702.30
2017-07-11T11:26:19.382Z,100703.03
2017-07-11T11:28:48.038Z,100706.71
2017-07-11T11:31:16.401Z,100697.48
2017-07-11T11:33:44.738Z,100709.59
2017-07-11T11:36:13.400Z,100694.55
2017-07-11T11:38:41.808Z,100695.83
2017-07-11T11:41:10.167Z,100703.01
2017-07-11T11:43:39.043Z,100701.98
2017-07-11T11:46:07.390Z,100699.27
2017-07-11T11:48:35.754Z,100701.25
2017-07-11T11:51:04.699Z,100713.80
2017-07-11T11:53:33.066Z,100711.55
2017-07-11T11:56:01.440Z,100709.33
2017-07-11T11:58:30.092Z,100694.87
2017-07-11T12:00:58.444Z,100697.83
2017-07-11T12:03:26.778Z,100688.23
2017-07-11T12:05:55.844Z,100691.77
2017-07-11T12:08:24.979Z,100698.73
2017-07-11T12:10:53.318Z,100698.27
2017-07-11T12:13:21.992Z,100702.95
2017-07-11T12:15:50.339Z,100700.50
2017-07-11T12:18:18.686Z,100705.88
2017-07-11T12:20:47.326Z,100699.01
2017-07-11T12:23:15.661Z,100698.27
2017-07-11T12:25:44.007Z,100704.16
2017-07-11T12:28:13.273Z,100700.94
2017-07-11T12:30:41.641Z,100708.58
2017-07-11T12:33:09.998Z,100713.83
2017-07-11T12:35:38.779Z,100717.40
2017-07-11T12:38:07.139Z,100721.19
2017-07-11T12:40:36.282Z,100727.38
2017-07-11T12:43:05.238Z,100716.41
2017-07-11T12:45:33.564Z,100719.39
2017-07-11T12:48:01.910Z,100716.98
2017-07-11T12:50:31.226Z,100720.50
2017-07-11T12:52:59.563Z,100724.63
2017-07-11T12:55:27.960Z,100719.78
2017-07-11T12:57:56.558Z,100721.02
2017-07-11T13:00:24.882Z,100725.54
2017-07-11T13:02:53.243Z,100745.31
2017-07-11T13:05:22.040Z,100737.67
2017-07-11T13:07:50.381Z,100738.69
2017-07-11T13:10:18.741Z,100745.61
2017-07-11T13:12:47.727Z,100758.56
2017-07-11T13:15:16.834Z,100752.88
2017-07-11T13:17:45.175Z,100759.11
2017-07-11T13:20:14.106Z,100755.20
2017-07-11T13:22:42.470Z,100754.80
2017-07-11T13:25:11.643Z,100753.97
2017-07-11T13:27:40.310Z,100752.74
2017-07-11T13:30:08.649Z,100754.02
2017-07-11T13:32:37.014Z,100741.80
2017-07-11T13:35:06.092Z,100755.49
2017-07-11T13:37:35.191Z,100750.24
2017-07-11T13:40:03.532Z,100736.41
2017-07-11T13:42:32.301Z,100751.67
2017-07-11T13:45:00.656Z,100754.71
2017-07-11T13:47:29.817Z,100763.36
2017-07-11T13:49:58.497Z,100755.45
2017-07-11T13:52:26.856Z,100762.85
2017-07-11T13:54:55.212Z,100752.75
2017-07-11T13:57:24.195Z,100762.29
2017-07-11T13:59:52.572Z,100759.37
2017-07-11T14:02:21.728Z,100757.88
2017-07-11T14:04:50.473Z,100747.77
2017-07-11T14:07:18.812Z,100753.81
2017-07-11T14:09:47.167Z,100763.66
2017-07-11T14:12:15.824Z,100756.27
2017-07-11T14:14:44.159Z,100760.45
2017-07-11T14:17:12.493Z,100756.61
2017-07-11T14:19:41.571Z,100753.81
2017-07-11T14:22:09.907Z,100746.90
2017-07-11T14:24:39.053Z,100756.75
2017-07-11T14:27:07.818Z,100765.72
2017-07-11T14:29:36.170Z,100754.50
2017-07-11T14:32:05.302Z,100754.52
2017-07-11T14:34:33.975Z,100763.69
2017-07-11T14:37:03.093Z,100762.13
2017-07-11T14:39:31.434Z,100766.09
2017-07-11T14:42:00.352Z,100762.56
2017-07-11T14:44:28.684Z,100755.59
2017-07-11T14:46:57.026Z,100751.53
2017-07-11T14:49:25.999Z,100758.25
2017-07-11T14:51:54.343Z,100765.05
2017-07-11T14:54:22.734Z,100761.68
2017-07-11T14:56:51.406Z,100759.63
2017-07-11T14:59:19.770Z,100771.48
2017-07-11T15:01:48.119Z,100786.53
2017-07-11T15:04:16.846Z,100793.52
2017-07-11T15:06:45.215Z,100780.34
2017-07-11T15:09:13.564Z,100780.17
2017-07-11T15:11:42.228Z,100792.84
2017-07-11T15:14:10.595Z,100790.86
2017-07-11T15:16:38.935Z,100788.86
2017-07-11T15:19:07.572Z,100792.91
2017-07-11T15:21:35.914Z,100792.81
2017-07-11T15:24:04.279Z,100789.09
2017-07-11T15:26:33.215Z,100789.99
2017-07-11T15:29:01.538Z,100785.64
2017-07-11T15:31:29.882Z,100788.83
2017-07-11T15:33:58.549Z,100796.14
2017-07-11T15:36:27.673Z,100791.05
2017-07-11T15:38:56.000Z,100789.63
2017-07-11T15:41:24.656Z,100788.31
2017-07-11T15:43:53.014Z,100787.63
2017-07-11T15:46:21.363Z,100785.91
2017-07-11T15:48:50.370Z,100790.06
2017-07-11T15:51:18.707Z,100782.24
2017-07-11T15:53:47.048Z,100793.56
2017-07-11T15:56:16.269Z,100786.27
2017-07-11T15:58:44.612Z,100793.41
2017-07-11T16:01:13.715Z,100787.31
2017-07-11T16:03:42.467Z,100773.39
2017-07-11T16:06:10.785Z,100774.06
2017-07-11T16:08:39.137Z,100782.81
2017-07-11T16:11:08.678Z,100783.11
2017-07-11T16:13:37.056Z,100792.80
2017-07-11T16:16:05.404Z,100791.86
2017-07-11T16:18:34.850Z,100799.87
2017-07-11T16:21:03.203Z,100795.44
2017-07-11T16:23:32.369Z,100787.46
2017-07-11T16:26:01.089Z,100790.04
2017-07-11T16:28:29.435Z,100795.80
2017-07-11T16:30:57.776Z,100804.19
2017-07-11T16:33:26.706Z,100808.81
2017-07-11T16:35:55.066Z,100818.84
2017-07-11T16:38:23.469Z,100823.57
2017-07-11T16:40:52.418Z,100830.69
2017-07-11T16:43:20.785Z,100836.27
2017-07-11T16:45:49.185Z,100837.56
2017-07-11T16:48:18.030Z,100843.45
2017-07-11T16:50:46.392Z,100848.17
2017-07-11T16:53:14.737Z,100850.45
2017-07-11T16:55:43.937Z,100841.28
2017-07-11T16:58:12.311Z,100848.59
2017-07-11T17:00:40.642Z,100842.27
2017-07-11T17:03:09.334Z,100837.58
2017-07-11T17:05:38.042Z,100846.55
2017-07-11T17:08:06.400Z,100844.70
2017-07-11T17:10:35.829Z,100838.38
2017-07-11T17:13:04.206Z,100834.29
2017-07-11T17:15:32.600Z,100832.66
2017-07-11T17:18:02.501Z,100844.68
2017-07-11T17:20:30.857Z,100830.97
2017-07-11T17:22:59.199Z,100832.02
2017-07-11T17:25:28.158Z,100830.28
2017-07-11T17:27:56.537Z,100833.02
2017-07-11T17:30:24.908Z,100831.66
2017-07-11T17:32:53.618Z,100832.92
2017-07-11T17:35:21.976Z,100828.22
2017-07-11T17:37:50.314Z,100829.93
2017-07-11T17:40:19.226Z,100828.72
2017-07-11T17:42:47.665Z,100826.87
2017-07-11T17:45:16.019Z,100820.73
2017-07-11T17:47:44.656Z,100826.69
2017-07-11T17:50:13.046Z,100821.75
2017-07-11T17:52:42.189Z,100820.67
2017-07-11T17:55:10.952Z,100817.42
2017-07-11T17:57:39.296Z,100817.23
2017-07-11T18:00:08.409Z,100819.95
2017-07-11T18:02:37.405Z,100823.03
2017-07-11T18:05:05.776Z,100829.97
2017-07-11T18:07:35.157Z,100828.23
2017-07-11T18:10:03.894Z,100835.86
2017-07-11T18:12:32.218Z,100831.05
2017-07-11T18:15:00.586Z,100839.09
2017-07-11T18:17:29.535Z,100849.28
2017-07-11T18:19:57.896Z,100852.41
2017-07-11T18:22:27.015Z,100856.50
2017-07-11T18:24:56.003Z,100854.52
2017-07-11T18:27:24.355Z,100858.23
2017-07-11T18:29:53.496Z,100857.37
2017-07-11T18:32:22.283Z,100868.57
2017-07-11T18:34:50.619Z,100870.19
2017-07-11T18:37:19.742Z,100884.59
2017-07-11T18:39:48.709Z,100883.80
2017-07-11T18:42:17.109Z,100886.06
2017-07-11T18:44:45.486Z,100882.36
2017-07-11T18:47:14.410Z,100887.63
2017-07-11T18:49:42.763Z,100883.70
2017-07-11T18:52:11.097Z,100889.29
2017-07-11T18:54:39.834Z,100886.45
2017-07-11T18:57:08.196Z,100878.66
2017-07-11T18:59:36.555Z,100875.31
2017-07-11T19:02:05.284Z,100882.20
2017-07-11T19:04:33.600Z,100878.48
2017-07-11T19:07:01.966Z,100876.32
2017-07-11T19:09:30.834Z,100880.09
2017-07-11T19:11:59.184Z,100876.80
2017-07-11T19:14:27.519Z,100881.06
2017-07-11T19:16:56.370Z,100881.66
2017-07-11T19:19:24.726Z,100878.47
2017-07-11T19:21:53.864Z,100872.28
2017-07-11T19:24:22.545Z,100881.05
2017-07-11T19:26:50.905Z,100879.31
2017-07-11T19:29:19.259Z,100879.62
2017-07-11T19:31:48.073Z,100881.05
2017-07-11T19:34:16.449Z,100877.63
2017-07-11T19:36:44.816Z,100866.47
2017-07-11T19:39:13.737Z,100873.86
2017-07-11T19:41:42.085Z,100882.56
2017-07-11T19:44:11.205Z,100880.46
2017-07-11T19:46:39.979Z,100889.95
2017-07-11T19:49:08.310Z,100897.87
2017-07-11T19:51:36.650Z,100909.03
2017-07-11T19:54:05.723Z,100915.70
2017-07-11T19:56:34.831Z,100915.16
2017-07-11T19:59:03.949Z,100916.53
2017-07-11T20:01:32.732Z,100910.81
2017-07-11T20:04:01.101Z,100921.14
2017-07-11T20:06:29.487Z,100925.45
2017-07-11T20:08:58.153Z,100922.44
2017-07-11T20:11:26.483Z,100923.20
2017-07-11T20:13:54.851Z,100915.37
2017-07-11T20:16:23.808Z,100919.28
2017-07-11T20:18:52.131Z,100915.13
2017-07-11T20:21:20.490Z,100914.66
2017-07-11T20:23:49.273Z,100908.34
2017-07-11T20:26:17.653Z,100906.15
2017-07-11T20:28:46.003Z,100909.66
2017-07-11T20:31:14.924Z,100909.70
2017-07-11T20:33:43.310Z,100913.66
2017-07-11T20:36:11.664Z,100919.01
2017-07-11T20:38:40.523Z,100920.38
2017-07-11T20:41:08.866Z,100932.84
2017-07-11T20:43:37.232Z,100933.53
2017-07-11T20:46:05.853Z,100931.20
2017-07-11T20:48:34.227Z,100926.80
2017-07-11T20:51:02.602Z,100925.47
2017-07-11T20:53:31.458Z,100923.05
2017-07-11T20:55:59.829Z,100922.42
2017-07-11T20:58:28.179Z,100916.75
2017-07-11T21:00:57.092Z,100920.84
2017-07-11T21:03:25.461Z,100917.70
2017-07-11T21:05:53.830Z,100916.55
2017-07-11T21:08:22.499Z,100911.33
2017-07-11T21:10:50.856Z,100913.15
2017-07-11T21:13:19.255Z,100913.16
2017-07-11T21:15:48.010Z,100913.09
2017-07-11T21:18:16.360Z,100918.56
2017-07-11T21:20:44.782Z,100917.61
2017-07-11T21:23:13.669Z,100926.54
2017-07-11T21:25:42.035Z,100925.81
2017-07-11T21:28:10.403Z,100916.69
2017-07-11T21:30:39.259Z,100924.52
2017-07-11T21:33:07.612Z,100920.25
2017-07-11T21:35:35.967Z,100920.75
2017-07-11T21:38:04.651Z,100923.48
2017-07-11T21:40:32.996Z,100939.60
2017-07-11T21:43:01.365Z,100938.73
2017-07-11T21:45:30.289Z,100941.48
2017-07-11T21:47:58.655Z,100941.66
2017-07-11T21:50:27.013Z,100936.38
2017-07-11T21:52:55.676Z,100940.44
2017-07-11T21:55:24.005Z,100944.05
2017-07-11T21:57:53.102Z,100952.14
2017-07-11T22:00:22.697Z,100963.77
2017-07-11T22:02:51.029Z,100957.73
2017-07-11T22:05:19.368Z,100960.09
2017-07-11T22:07:48.603Z,100962.63
2017-07-11T22:10:16.975Z,100959.33
2017-07-11T22:12:45.436Z,100962.38
2017-07-11T22:15:14.119Z,100961.98
2017-07-11T22:17:42.479Z,100966.20
2017-07-11T22:20:10.853Z,100956.33
2017-07-11T22:22:39.597Z,100959.22
2017-07-11T22:25:07.922Z,100965.22
2017-07-11T22:27:36.267Z,100966.05
2017-07-11T22:30:05.092Z,100968.30
2017-07-11T22:32:33.426Z,100970.87
2017-07-11T22:35:01.797Z,100963.87
2017-07-11T22:37:30.563Z,100968.17
2017-07-11T22:39:58.919Z,100974.30
2017-07-11T22:42:27.284Z,100971.20
2017-07-11T22:44:55.961Z,100969.45
2017-07-11T22:47:24.331Z,100978.06
2017-07-11T22:49:52.687Z,100972.57
2017-07-11T22:52:21.544Z,100976.27
2017-07-11T22:54:50.652Z,100985.64
2017-07-11T22:57:19.028Z,100980.18
2017-07-11T22:59:47.715Z,100971.44
2017-07-11T23:02:16.058Z,100975.23
2017-07-11T23:04:44.406Z,100980.71
2017-07-11T23:07:13.026Z,100977.64
2017-07-11T23:09:42.163Z,100967.53
2017-07-11T23:12:10.518Z,100963.31
2017-07-11T23:14:39.628Z,100967.73
2017-07-11T23:17:08.001Z,100965.73
2017-07-11T23:19:37.114Z,100965.10
2017-07-11T23:22:05.977Z,100962.16
2017-07-11T23:24:34.338Z,100949.70
2017-07-11T23:27:02.681Z,100954.13
2017-07-11T23:29:31.554Z,100955.28
2017-07-11T23:31:59.908Z,100954.97
2017-07-11T23:34:29.021Z,100954.02
2017-07-11T23:36:58.422Z,100950.70
2017-07-11T23:39:26.802Z,100948.35
2017-07-11T23:41:55.180Z,100932.64
2017-07-11T23:44:23.813Z,100931.60
2017-07-11T23:46:52.170Z,100938.00
2017-07-11T23:49:20.515Z,100935.11
2017-07-11T23:51:49.235Z,100932.45
2017-07-11T23:54:17.575Z,100936.17
2017-07-11T23:56:45.899Z,100932.93
2017-07-11T23:59:14.925Z,100932.20
